Time;durP1;ratioP1;P1;durP2;ratioP2;P2;SDS_P1;SDS_P2;PMS_P1;PMS_P2;Temp;Humidity;BMP_temperature;BMP_pressure;BME280_temperature;BME280_humidity;BME280_pressure;Samples;Min_cycle;Max_cycle;Signal;HPM_P1;HPM_P2
2023/05/09 00:00:44;;;;;;;51.95;31.08;;;16.70;99.90;;;;;;5054112;28;20104;-82
2023/05/09 00:03:11;;;;;;;55.95;29.77;;;16.80;99.90;;;;;;5054372;28;20073;-83
2023/05/09 00:05:37;;;;;;;51.72;30.55;;;16.70;99.90;;;;;;5054314;28;20060;-83
2023/05/09 00:08:03;;;;;;;52.35;29.92;;;16.80;99.90;;;;;;5053025;28;20031;-83
2023/05/09 00:10:29;;;;;;;49.72;29.48;;;16.80;99.90;;;;;;5036561;28;20116;-83
2023/05/09 00:12:55;;;;;;;50.28;29.00;;;16.80;99.90;;;;;;5054234;28;20029;-83
2023/05/09 00:15:22;;;;;;;48.70;29.40;;;16.80;99.90;;;;;;5052895;28;20063;-83
2023/05/09 00:17:49;;;;;;;51.42;29.15;;;16.80;99.90;;;;;;5052970;28;20029;-83
2023/05/09 00:20:15;;;;;;;53.25;30.50;;;16.80;99.90;;;;;;5054129;28;20067;-82
2023/05/09 00:22:41;;;;;;;47.25;29.20;;;16.80;99.90;;;;;;5052786;28;20033;-83
2023/05/09 00:25:10;;;;;;;54.80;32.03;;;16.80;99.90;;;;;;5052752;28;20044;-82
2023/05/09 00:27:36;;;;;;;54.47;32.15;;;16.80;99.90;;;;;;5053718;28;20078;-82
2023/05/09 00:30:05;;;;;;;51.30;31.50;;;16.80;99.90;;;;;;5052725;28;20457;-82
2023/05/09 00:32:32;;;;;;;49.13;29.27;;;16.80;99.90;;;;;;5052539;28;20032;-83
2023/05/09 00:34:57;;;;;;;58.53;31.98;;;16.80;99.90;;;;;;5054013;28;20029;-83
2023/05/09 00:37:23;;;;;;;55.33;31.80;;;16.80;99.90;;;;;;5036079;28;20385;-82
2023/05/09 00:39:49;;;;;;;51.45;30.42;;;16.80;99.90;;;;;;5053691;28;20048;-83
2023/05/09 00:42:15;;;;;;;49.17;30.10;;;16.80;99.90;;;;;;5053730;28;20040;-84
2023/05/09 00:44:41;;;;;;;57.40;32.58;;;16.80;99.90;;;;;;5052304;28;20049;-83
2023/05/09 00:47:07;;;;;;;55.75;31.65;;;16.80;99.90;;;;;;5052239;28;20025;-83
2023/05/09 00:49:33;;;;;;;51.03;31.10;;;16.80;99.90;;;;;;5052419;28;20033;-84
2023/05/09 00:51:59;;;;;;;51.40;30.98;;;16.80;99.90;;;;;;5052109;28;20033;-83
2023/05/09 00:54:25;;;;;;;56.63;32.17;;;16.80;99.90;;;;;;5052398;28;20048;-84
2023/05/09 00:56:51;;;;;;;54.75;32.13;;;16.80;99.90;;;;;;5053372;28;20029;-83
2023/05/09 00:59:17;;;;;;;56.10;32.22;;;16.80;99.90;;;;;;5053490;28;20029;-84
2023/05/09 01:01:44;;;;;;;60.95;33.35;;;16.80;99.90;;;;;;5052015;28;20033;-84
2023/05/09 01:04:11;;;;;;;57.72;32.45;;;16.80;99.90;;;;;;5052113;28;20089;-83
2023/05/09 01:07:05;;;;;;;54.47;31.55;;;16.80;99.90;;;;;;5052127;28;20041;-83
2023/05/09 01:09:46;;;;;;;59.15;32.47;;;16.80;99.90;;;;;;5053187;28;20090;-84
2023/05/09 01:12:34;;;;;;;61.40;32.78;;;16.80;99.90;;;;;;5052959;28;20386;-83
2023/05/09 01:15:15;;;;;;;55.75;30.25;;;16.80;99.90;;;;;;5053126;28;20036;-83
2023/05/09 01:17:50;;;;;;;55.25;30.65;;;16.70;99.90;;;;;;5053196;28;20424;-83
2023/05/09 01:20:38;;;;;;;59.65;31.92;;;16.70;99.90;;;;;;5051858;28;20429;-83
2023/05/09 01:23:46;;;;;;;59.13;32.80;;;16.70;99.90;;;;;;5051873;28;20078;-84
2023/05/09 01:26:46;;;;;;;54.17;31.85;;;16.70;99.90;;;;;;5008877;28;20047;-83
2023/05/09 01:29:37;;;;;;;57.22;31.10;;;16.70;99.90;;;;;;5053027;28;20033;-83
2023/05/09 01:32:08;;;;;;;55.55;31.02;;;16.70;99.90;;;;;;5051683;28;20060;-83
2023/05/09 01:34:36;;;;;;;61.20;32.22;;;16.70;99.90;;;;;;5053081;28;20111;-83
2023/05/09 01:37:04;;;;;;;57.72;32.40;;;16.70;99.90;;;;;;5051968;28;20032;-83
2023/05/09 01:39:32;;;;;;;53.92;31.23;;;16.70;99.90;;;;;;5052911;28;20025;-83
2023/05/09 01:42:01;;;;;;;58.05;32.63;;;16.70;99.90;;;;;;5053151;28;20021;-83
2023/05/09 01:44:34;;;;;;;56.40;32.90;;;16.70;99.90;;;;;;5051513;28;20040;-84
2023/05/09 01:47:01;;;;;;;58.42;33.78;;;16.70;99.90;;;;;;5051647;28;20059;-83
2023/05/09 01:49:32;;;;;;;57.10;33.30;;;16.70;99.90;;;;;;5051576;28;20036;-83
2023/05/09 01:52:04;;;;;;;57.83;32.20;;;16.70;99.90;;;;;;5051452;28;20469;-83
2023/05/09 01:54:31;;;;;;;65.13;35.95;;;16.70;99.90;;;;;;5052843;28;20017;-83
2023/05/09 01:56:58;;;;;;;61.40;33.38;;;16.70;99.90;;;;;;5051224;28;20021;-83
2023/05/09 01:59:25;;;;;;;58.67;33.13;;;16.70;99.90;;;;;;5051385;28;20083;-83
2023/05/09 02:01:53;;;;;;;62.78;34.70;;;16.70;99.90;;;;;;5051707;28;20029;-83
2023/05/09 02:04:20;;;;;;;57.58;33.67;;;16.70;99.90;;;;;;5051528;28;20049;-83
2023/05/09 02:06:49;;;;;;;64.35;34.63;;;16.70;99.90;;;;;;5034836;28;20432;-83
2023/05/09 02:09:16;;;;;;;60.22;34.38;;;16.70;99.90;;;;;;5051836;28;20358;-83
2023/05/09 02:11:42;;;;;;;62.83;34.47;;;16.70;99.90;;;;;;5052615;28;20025;-84
2023/05/09 02:14:08;;;;;;;65.95;35.72;;;16.70;99.90;;;;;;5051393;28;20082;-83
2023/05/09 02:16:38;;;;;;;61.30;34.22;;;16.70;99.90;;;;;;5051570;28;20033;-83
2023/05/09 02:19:04;;;;;;;63.10;35.10;;;16.70;99.90;;;;;;5035334;28;20533;-84
2023/05/09 02:21:29;;;;;;;57.15;33.50;;;16.70;99.90;;;;;;5051375;28;20156;-84
2023/05/09 02:23:55;;;;;;;67.50;37.38;;;16.70;99.90;;;;;;5051774;28;20127;-83
2023/05/09 02:26:21;;;;;;;65.85;36.65;;;16.70;99.90;;;;;;5054935;28;20389;-83
2023/05/09 02:28:48;;;;;;;67.60;38.10;;;16.70;99.90;;;;;;5054835;28;20032;-84
2023/05/09 02:31:17;;;;;;;63.28;34.47;;;16.60;99.90;;;;;;5055013;28;20048;-84
2023/05/09 02:33:45;;;;;;;62.33;34.60;;;16.60;99.90;;;;;;5055951;28;20029;-84
2023/05/09 02:36:12;;;;;;;64.82;36.08;;;16.60;99.90;;;;;;5054940;28;20472;-83
2023/05/09 02:38:40;;;;;;;64.63;36.50;;;16.60;99.90;;;;;;5056110;28;20025;-83
2023/05/09 02:41:06;;;;;;;68.32;36.50;;;16.50;99.90;;;;;;5038322;28;20025;-83
2023/05/09 02:43:32;;;;;;;67.90;36.28;;;16.60;99.90;;;;;;5055909;28;20022;-83
2023/05/09 02:45:57;;;;;;;66.38;36.53;;;16.60;99.90;;;;;;5037746;28;20045;-83
2023/05/09 02:48:23;;;;;;;65.95;36.70;;;16.50;99.90;;;;;;5055935;28;20017;-84
2023/05/09 02:50:49;;;;;;;67.22;36.47;;;16.50;99.90;;;;;;5055697;28;20049;-83
2023/05/09 02:53:14;;;;;;;64.97;35.72;;;16.50;99.90;;;;;;5037801;28;20021;-83
2023/05/09 02:55:40;;;;;;;62.55;34.92;;;16.50;99.90;;;;;;5054363;28;20025;-83
2023/05/09 02:58:07;;;;;;;65.65;36.25;;;16.50;99.90;;;;;;5054286;28;20037;-83
2023/05/09 03:00:32;;;;;;;61.65;35.00;;;16.40;99.90;;;;;;5054272;28;20025;-84
2023/05/09 03:02:59;;;;;;;60.95;34.90;;;16.40;99.90;;;;;;5037642;28;20033;-83
2023/05/09 03:05:24;;;;;;;68.68;36.40;;;16.40;99.90;;;;;;5054074;28;20021;-84
2023/05/09 03:07:51;;;;;;;71.00;37.30;;;16.40;99.90;;;;;;5054525;28;20115;-83
2023/05/09 03:10:16;;;;;;;69.47;36.65;;;16.30;99.90;;;;;;5037484;28;20370;-84
2023/05/09 03:12:42;;;;;;;63.78;34.47;;;16.30;99.90;;;;;;5055278;28;20032;-83
2023/05/09 03:15:08;;;;;;;64.15;35.83;;;16.30;99.90;;;;;;5055273;28;20029;-83
2023/05/09 03:17:34;;;;;;;67.75;37.20;;;16.30;99.90;;;;;;5037382;28;20115;-83
2023/05/09 03:20:00;;;;;;;60.63;35.30;;;16.30;99.90;;;;;;5055266;28;20113;-83
2023/05/09 03:22:26;;;;;;;60.45;35.03;;;16.30;99.90;;;;;;5054016;28;20029;-84
2023/05/09 03:24:51;;;;;;;63.05;33.00;;;16.30;99.90;;;;;;5055114;28;20544;-83
2023/05/09 03:27:17;;;;;;;65.78;35.08;;;16.20;99.90;;;;;;5053880;28;20108;-83
2023/05/09 03:29:43;;;;;;;58.10;33.25;;;16.30;99.90;;;;;;5053806;28;20128;-83
2023/05/09 03:32:08;;;;;;;59.20;31.50;;;16.30;99.90;;;;;;5053843;28;20355;-83
2023/05/09 03:34:34;;;;;;;51.45;31.33;;;16.30;99.90;;;;;;5055064;28;20036;-83
2023/05/09 03:37:00;;;;;;;55.40;31.55;;;16.30;99.90;;;;;;5053168;28;20078;-83
2023/05/09 03:39:25;;;;;;;51.17;28.17;;;16.30;99.90;;;;;;5053682;28;20120;-83
2023/05/09 03:41:51;;;;;;;55.08;31.08;;;16.30;99.90;;;;;;5053576;28;20116;-84
2023/05/09 03:44:16;;;;;;;50.40;30.63;;;16.20;99.90;;;;;;5036765;28;20032;-83
2023/05/09 03:46:42;;;;;;;54.50;31.08;;;16.30;99.90;;;;;;5036777;28;20029;-83
2023/05/09 03:49:08;;;;;;;49.75;29.30;;;16.20;99.90;;;;;;5036887;28;20478;-83
2023/05/09 03:51:33;;;;;;;52.90;29.05;;;16.20;99.90;;;;;;5053539;28;20465;-83
2023/05/09 03:53:59;;;;;;;53.13;30.40;;;16.20;99.90;;;;;;5053319;28;20036;-83
2023/05/09 03:56:25;;;;;;;46.72;27.98;;;16.20;99.90;;;;;;5053268;28;20381;-83
2023/05/09 03:58:51;;;;;;;50.20;28.65;;;16.20;99.90;;;;;;5053461;28;20021;-84
2023/05/09 04:01:17;;;;;;;49.30;28.95;;;16.20;99.90;;;;;;5053166;28;20029;-83
2023/05/09 04:03:42;;;;;;;50.17;29.30;;;16.20;99.90;;;;;;5054377;28;20033;-82
2023/05/09 04:06:08;;;;;;;52.63;29.50;;;16.20;99.90;;;;;;5036400;28;20025;-84
2023/05/09 04:08:34;;;;;;;48.10;28.42;;;16.20;99.90;;;;;;5053045;28;20025;-84
2023/05/09 04:11:00;;;;;;;46.38;27.40;;;16.20;99.90;;;;;;5053231;28;20040;-83
2023/05/09 04:13:26;;;;;;;49.67;27.80;;;16.20;99.90;;;;;;5052951;28;20025;-83
2023/05/09 04:15:52;;;;;;;48.20;28.27;;;16.30;99.90;;;;;;5036363;28;20401;-83
2023/05/09 04:18:18;;;;;;;48.20;28.63;;;16.20;99.90;;;;;;5052861;28;20033;-83
2023/05/09 04:20:43;;;;;;;46.40;27.67;;;16.20;99.90;;;;;;5052823;28;20068;-83
2023/05/09 04:23:09;;;;;;;45.80;27.52;;;16.20;99.90;;;;;;5052734;28;20393;-83
2023/05/09 04:25:36;;;;;;;43.80;26.08;;;16.30;99.90;;;;;;5054627;28;20031;-83
2023/05/09 04:28:01;;;;;;;42.30;25.75;;;16.20;99.90;;;;;;5063440;28;20509;-83
2023/05/09 04:30:27;;;;;;;42.17;25.15;;;16.20;99.90;;;;;;5078983;28;20032;-83
2023/05/09 04:32:54;;;;;;;38.58;23.48;;;16.20;99.90;;;;;;5070606;28;20031;-82
2023/05/09 04:35:20;;;;;;;39.40;24.42;;;16.20;99.90;;;;;;5055826;28;20043;-83
2023/05/09 04:37:46;;;;;;;40.60;22.58;;;16.10;99.90;;;;;;5057891;28;20082;-83
2023/05/09 04:40:12;;;;;;;40.72;23.88;;;16.20;99.90;;;;;;5067578;28;20020;-83
2023/05/09 04:42:38;;;;;;;37.83;23.67;;;16.20;99.90;;;;;;5067956;28;20036;-84
2023/05/09 04:45:04;;;;;;;39.15;23.23;;;16.20;99.90;;;;;;5051814;28;20063;-85
2023/05/09 04:47:30;;;;;;;37.15;23.08;;;16.20;99.90;;;;;;5067998;28;20037;-82
2023/05/09 04:49:56;;;;;;;36.47;21.73;;;16.20;99.90;;;;;;5068940;28;20358;-83
2023/05/09 04:52:21;;;;;;;36.00;22.55;;;16.20;99.90;;;;;;5068811;28;20071;-82
2023/05/09 04:54:47;;;;;;;36.72;22.42;;;16.20;99.90;;;;;;5052161;28;20025;-81
2023/05/09 04:57:12;;;;;;;37.70;22.02;;;16.20;99.90;;;;;;5052168;28;20033;-82
2023/05/09 04:59:38;;;;;;;38.10;23.85;;;16.20;99.90;;;;;;5053476;28;20028;-83
2023/05/09 05:02:04;;;;;;;38.22;22.30;;;16.30;99.90;;;;;;5053398;28;20048;-82
2023/05/09 05:04:30;;;;;;;36.55;22.35;;;16.30;99.90;;;;;;5068716;28;20082;-81
2023/05/09 05:06:56;;;;;;;35.45;22.67;;;16.30;99.90;;;;;;5068528;28;20056;-82
2023/05/09 05:09:21;;;;;;;40.67;23.27;;;16.30;99.90;;;;;;5071820;28;20025;-82
2023/05/09 05:11:47;;;;;;;38.03;22.55;;;16.30;99.90;;;;;;5055238;28;20036;-82
2023/05/09 05:14:13;;;;;;;36.25;23.05;;;16.30;99.90;;;;;;5071339;28;20028;-83
2023/05/09 05:16:38;;;;;;;33.17;21.35;;;16.30;99.90;;;;;;5054642;28;20507;-82
2023/05/09 05:19:04;;;;;;;35.38;21.63;;;16.30;99.90;;;;;;5071819;28;20024;-82
2023/05/09 05:21:30;;;;;;;33.95;21.38;;;16.30;99.90;;;;;;5071507;28;20039;-81
2023/05/09 05:23:55;;;;;;;32.33;20.75;;;16.30;99.90;;;;;;5071518;28;20542;-80
2023/05/09 05:26:21;;;;;;;35.25;21.45;;;16.40;99.90;;;;;;5072591;28;20128;-81
2023/05/09 05:28:47;;;;;;;37.28;23.33;;;16.40;99.90;;;;;;5073243;28;20025;-82
2023/05/09 05:31:12;;;;;;;30.10;20.08;;;16.40;99.90;;;;;;5071837;28;20033;-82
2023/05/09 05:33:38;;;;;;;34.03;21.00;;;16.50;99.90;;;;;;5071870;28;20031;-82
2023/05/09 05:36:04;;;;;;;33.40;21.00;;;16.50;99.90;;;;;;5054691;28;20078;-82
2023/05/09 05:38:29;;;;;;;32.42;20.67;;;16.50;99.90;;;;;;5071772;28;20032;-83
2023/05/09 05:40:55;;;;;;;31.73;19.85;;;16.60;99.90;;;;;;5054977;28;20032;-84
2023/05/09 05:43:21;;;;;;;31.05;19.77;;;16.60;99.90;;;;;;5052951;28;20071;-83
2023/05/09 05:45:46;;;;;;;30.25;20.00;;;16.60;99.90;;;;;;5071705;28;20106;-84
2023/05/09 05:48:12;;;;;;;33.55;20.00;;;16.70;99.90;;;;;;5071771;28;20121;-85
2023/05/09 05:50:38;;;;;;;30.90;19.17;;;16.60;99.90;;;;;;5054324;28;20032;-83
2023/05/09 05:53:03;;;;;;;29.02;18.35;;;16.70;99.90;;;;;;5054759;28;20468;-81
2023/05/09 05:55:29;;;;;;;29.55;18.73;;;16.70;99.90;;;;;;5071307;28;20040;-82
2023/05/09 05:57:55;;;;;;;29.52;18.92;;;16.70;99.90;;;;;;5071946;28;20465;-81
2023/05/09 06:00:20;;;;;;;30.52;18.60;;;16.70;99.90;;;;;;5074535;28;20107;-83
2023/05/09 06:02:46;;;;;;;34.08;20.45;;;16.70;99.90;;;;;;5072184;28;20139;-81
2023/05/09 06:05:12;;;;;;;26.95;18.30;;;16.80;99.90;;;;;;5075336;28;20037;-82
2023/05/09 06:07:42;;;;;;;28.30;19.95;;;16.70;99.90;;;;;;5075397;28;20025;-82
2023/05/09 06:10:08;;;;;;;26.67;18.70;;;16.80;99.90;;;;;;5075858;28;20049;-83
2023/05/09 06:12:34;;;;;;;25.80;16.95;;;16.80;99.90;;;;;;5076578;28;20047;-81
2023/05/09 06:15:00;;;;;;;26.58;16.48;;;16.80;99.90;;;;;;5076391;28;20028;-84
2023/05/09 06:17:26;;;;;;;25.58;15.68;;;16.80;99.90;;;;;;5075194;28;20090;-84
2023/05/09 06:19:52;;;;;;;22.17;15.27;;;16.80;99.90;;;;;;5075382;28;20024;-83
2023/05/09 06:22:17;;;;;;;24.75;14.85;;;16.80;99.90;;;;;;5075724;28;20435;-85
2023/05/09 06:24:43;;;;;;;21.60;15.02;;;16.80;99.90;;;;;;5063099;28;20028;-82
2023/05/09 06:27:09;;;;;;;18.45;12.93;;;16.80;99.90;;;;;;5079116;28;20033;-84
2023/05/09 06:29:35;;;;;;;21.65;13.52;;;16.90;99.90;;;;;;5075138;28;20029;-86
2023/05/09 06:32:01;;;;;;;21.23;13.85;;;16.90;99.90;;;;;;5075320;28;20043;-82
2023/05/09 06:34:26;;;;;;;23.23;13.18;;;17.00;99.90;;;;;;5076256;28;20378;-82
2023/05/09 06:36:52;;;;;;;19.20;12.98;;;17.00;99.90;;;;;;5059092;28;20036;-82
2023/05/09 06:39:17;;;;;;;19.52;12.68;;;17.10;99.90;;;;;;5074708;28;20427;-84
2023/05/09 06:41:43;;;;;;;18.75;12.30;;;17.10;99.90;;;;;;5058381;28;20063;-81
2023/05/09 06:44:08;;;;;;;19.25;12.52;;;17.20;99.90;;;;;;5074966;28;20492;-84
2023/05/09 06:46:34;;;;;;;20.95;13.55;;;17.20;99.90;;;;;;5074558;28;20098;-83
2023/05/09 06:49:01;;;;;;;17.60;12.70;;;17.30;99.90;;;;;;5073373;28;20032;-84
2023/05/09 06:51:27;;;;;;;18.27;11.80;;;17.30;99.90;;;;;;5076242;28;20419;-83
2023/05/09 06:53:52;;;;;;;21.52;13.07;;;17.40;99.90;;;;;;5057757;28;20037;-82
2023/05/09 06:56:21;;;;;;;20.35;13.60;;;17.40;99.90;;;;;;5076187;28;20444;-83
2023/05/09 06:58:47;;;;;;;23.05;14.23;;;17.50;99.90;;;;;;5074559;28;20036;-82
2023/05/09 07:01:13;;;;;;;19.60;13.18;;;17.50;99.90;;;;;;5074424;28;20028;-82
2023/05/09 07:03:39;;;;;;;18.38;13.20;;;17.50;99.90;;;;;;5057745;28;20085;-84
2023/05/09 07:06:05;;;;;;;19.60;12.95;;;17.50;99.90;;;;;;5072533;28;20056;-83
2023/05/09 07:08:30;;;;;;;19.70;12.73;;;17.60;99.90;;;;;;5071949;28;20040;-77
2023/05/09 07:10:56;;;;;;;19.50;12.88;;;17.60;99.90;;;;;;5036214;28;20087;-78
2023/05/09 07:13:22;;;;;;;20.80;12.63;;;17.60;99.60;;;;;;5037748;28;20053;-79
2023/05/09 07:15:48;;;;;;;16.33;11.93;;;17.70;99.50;;;;;;5065933;28;20106;-76
2023/05/09 07:18:13;;;;;;;19.35;12.10;;;17.60;99.30;;;;;;5054098;28;20036;-84
2023/05/09 07:20:39;;;;;;;18.75;13.05;;;17.60;99.20;;;;;;5053886;28;20041;-77
2023/05/09 07:23:04;;;;;;;16.25;11.30;;;17.60;99.10;;;;;;5053913;28;20082;-77
2023/05/09 07:25:30;;;;;;;17.88;11.93;;;17.70;99.20;;;;;;5053967;28;20412;-78
2023/05/09 07:28:02;;;;;;;20.33;13.65;;;17.70;99.30;;;;;;5053715;28;20420;-75
2023/05/09 07:30:27;;;;;;;17.45;11.90;;;17.70;99.10;;;;;;5053802;28;20017;-79
2023/05/09 07:32:53;;;;;;;18.35;10.88;;;17.80;99.00;;;;;;5054926;28;20033;-78
2023/05/09 07:35:20;;;;;;;18.50;12.20;;;17.80;98.80;;;;;;5053674;28;20040;-77
2023/05/09 07:37:46;;;;;;;16.73;11.55;;;17.80;98.60;;;;;;5037017;28;20025;-78
2023/05/09 07:40:12;;;;;;;19.50;12.30;;;17.80;98.60;;;;;;5054790;28;20036;-79
2023/05/09 07:42:38;;;;;;;17.65;11.80;;;17.90;98.40;;;;;;5053522;28;20393;-77
2023/05/09 07:45:07;;;;;;;16.05;12.07;;;17.90;98.30;;;;;;5053267;28;20029;-78
2023/05/09 07:47:33;;;;;;;18.60;13.15;;;17.90;98.30;;;;;;5054731;28;20036;-78
2023/05/09 07:49:58;;;;;;;18.52;12.00;;;18.00;98.10;;;;;;5036692;28;20025;-78
2023/05/09 07:52:24;;;;;;;18.13;12.68;;;18.10;98.00;;;;;;5036779;28;20072;-77
2023/05/09 07:54:49;;;;;;;15.95;11.77;;;18.10;98.10;;;;;;5036638;28;20025;-80
2023/05/09 07:57:17;;;;;;;17.27;12.02;;;18.10;98.10;;;;;;5036670;28;20500;-75
2023/05/09 07:59:42;;;;;;;16.98;12.15;;;18.20;97.90;;;;;;5054369;28;20032;-79
2023/05/09 08:02:08;;;;;;;18.38;12.25;;;18.30;97.50;;;;;;5036848;28;20021;-77
2023/05/09 08:04:37;;;;;;;16.30;11.30;;;18.30;97.30;;;;;;5036573;28;20032;-76
2023/05/09 08:07:03;;;;;;;17.02;12.07;;;18.30;97.40;;;;;;5052995;28;20103;-79
2023/05/09 08:09:29;;;;;;;18.25;12.45;;;18.40;97.30;;;;;;5054330;28;20380;-79
2023/05/09 08:11:55;;;;;;;16.60;11.30;;;18.40;97.00;;;;;;5036439;28;20033;-77
2023/05/09 08:14:20;;;;;;;17.52;12.20;;;18.40;96.90;;;;;;5052927;28;20036;-78
2023/05/09 08:16:46;;;;;;;16.17;11.65;;;18.40;96.80;;;;;;5036323;28;20021;-80
2023/05/09 08:19:12;;;;;;;16.42;10.65;;;18.50;96.70;;;;;;5052902;28;20036;-79
2023/05/09 08:21:37;;;;;;;16.63;11.27;;;18.50;96.70;;;;;;5052729;28;20033;-79
2023/05/09 08:24:04;;;;;;;16.60;11.48;;;18.50;96.50;;;;;;5036197;28;20029;-85
2023/05/09 08:26:30;;;;;;;16.35;10.95;;;18.50;96.60;;;;;;5036385;28;20036;-85
2023/05/09 08:28:56;;;;;;;16.52;10.93;;;18.60;96.50;;;;;;5052731;28;20090;-85
2023/05/09 08:31:21;;;;;;;16.05;12.02;;;18.60;96.40;;;;;;5052856;28;20040;-85
2023/05/09 08:33:47;;;;;;;17.38;11.68;;;18.50;96.40;;;;;;5053779;28;20029;-88
2023/05/09 08:36:13;;;;;;;16.63;11.30;;;18.50;96.50;;;;;;5052641;28;20110;-84
2023/05/09 08:38:39;;;;;;;16.10;11.75;;;18.50;96.50;;;;;;5053775;28;20028;-84
2023/05/09 08:41:05;;;;;;;16.48;12.13;;;18.60;96.40;;;;;;5036065;28;20021;-85
2023/05/09 08:43:32;;;;;;;18.50;11.77;;;18.60;96.40;;;;;;5053727;28;20035;-85
2023/05/09 08:46:03;;;;;;;19.73;12.15;;;18.60;96.30;;;;;;5035764;28;20068;-87
2023/05/09 08:48:30;;;;;;;15.52;11.35;;;18.60;96.10;;;;;;5053728;28;20448;-78
2023/05/09 08:50:56;;;;;;;16.90;12.38;;;18.50;96.10;;;;;;5035731;28;20032;-78
2023/05/09 08:53:22;;;;;;;20.10;12.77;;;18.60;96.10;;;;;;5053486;28;20040;-77
2023/05/09 08:55:51;;;;;;;20.25;14.75;;;18.50;96.10;;;;;;5053442;28;20477;-77
2023/05/09 08:58:19;;;;;;;20.35;12.20;;;18.50;96.10;;;;;;5052434;28;20040;-76
2023/05/09 09:00:46;;;;;;;17.27;12.77;;;18.40;96.10;;;;;;5053425;28;20025;-77
2023/05/09 09:03:11;;;;;;;18.27;12.32;;;18.40;96.00;;;;;;5052140;28;20540;-80
2023/05/09 09:05:40;;;;;;;19.17;14.30;;;18.30;96.10;;;;;;5053507;28;20104;-77
2023/05/09 09:08:06;;;;;;;15.55;11.73;;;18.20;96.00;;;;;;5052205;28;20025;-77
2023/05/09 09:10:34;;;;;;;18.88;12.43;;;18.10;96.10;;;;;;5053148;28;20056;-78
2023/05/09 09:13:03;;;;;;;16.77;11.23;;;18.10;96.10;;;;;;5053215;28;20121;-78
2023/05/09 09:15:34;;;;;;;19.30;11.40;;;18.00;96.10;;;;;;5053334;28;20535;-79
2023/05/09 09:18:06;;;;;;;14.73;9.73;;;17.90;96.10;;;;;;5053150;28;20108;-77
2023/05/09 09:20:34;;;;;;;14.75;10.27;;;17.90;96.20;;;;;;5051825;28;20354;-77
2023/05/09 09:23:03;;;;;;;14.43;9.90;;;17.80;96.30;;;;;;5051702;28;20025;-77
2023/05/09 09:25:29;;;;;;;16.33;10.55;;;17.80;96.30;;;;;;5051733;28;20090;-77
2023/05/09 09:27:54;;;;;;;13.93;10.25;;;17.80;96.40;;;;;;5051758;28;20029;-78
2023/05/09 09:30:26;;;;;;;15.88;9.70;;;17.80;96.50;;;;;;5053088;28;20029;-78
2023/05/09 09:32:51;;;;;;;11.65;7.95;;;17.70;96.60;;;;;;5051592;28;20540;-78
2023/05/09 09:35:18;;;;;;;13.73;9.75;;;17.70;96.70;;;;;;5040812;28;20140;-77
2023/05/09 09:37:44;;;;;;;14.75;8.63;;;17.70;96.70;;;;;;5041917;28;20115;-77
2023/05/09 09:40:11;;;;;;;13.15;8.10;;;17.70;97.00;;;;;;5058432;28;20052;-77
2023/05/09 09:42:45;;;;;;;10.35;8.13;;;17.70;96.90;;;;;;5058345;28;20052;-78
2023/05/09 09:45:12;;;;;;;;;;;17.70;97.00;;;;;;5059665;28;20037;-78
2023/05/09 09:47:39;;;;;;;13.20;8.35;;;17.80;97.00;;;;;;5041816;28;19947;-78
2023/05/09 09:50:15;;;;;;;12.07;7.97;;;17.80;97.00;;;;;;5059556;28;20033;-78
2023/05/09 09:52:42;;;;;;;12.48;9.30;;;17.80;97.30;;;;;;5059498;28;20063;-79
2023/05/09 09:55:08;;;;;;;11.48;8.00;;;17.90;97.00;;;;;;5059524;28;20017;-79
2023/05/09 09:57:38;;;;;;;9.70;7.10;;;18.00;97.00;;;;;;5058257;28;20508;-79
2023/05/09 10:00:05;;;;;;;10.48;6.47;;;18.10;97.00;;;;;;5059502;28;20491;-78
2023/05/09 10:02:31;;;;;;;10.65;6.35;;;18.10;96.70;;;;;;5041488;28;20473;-78
2023/05/09 10:05:08;;;;;;;8.55;6.10;;;18.30;96.80;;;;;;5059440;28;20021;-78
2023/05/09 10:07:34;;;;;;;9.70;5.55;;;18.30;96.70;;;;;;5059224;28;20056;-77
2023/05/09 10:10:04;;;;;;;10.70;6.32;;;18.50;96.70;;;;;;5058064;28;20282;-79
2023/05/09 10:12:36;;;;;;;8.65;5.03;;;18.50;96.40;;;;;;5058317;28;20078;-77
2023/05/09 10:15:07;;;;;;;7.75;4.68;;;18.50;95.80;;;;;;5058061;28;20033;-77
2023/05/09 10:17:33;;;;;;;7.05;4.20;;;18.50;95.50;;;;;;5059439;28;20102;-77
2023/05/09 10:20:03;;;;;;;6.40;4.25;;;18.50;95.40;;;;;;5058008;28;20025;-79
2023/05/09 10:22:34;;;;;;;6.20;3.92;;;18.60;95.40;;;;;;5057956;28;20021;-77
2023/05/09 10:25:02;;;;;;;7.38;4.30;;;18.60;95.10;;;;;;5059035;28;20025;-76
2023/05/09 10:27:31;;;;;;;7.60;4.18;;;18.60;95.20;;;;;;5059159;28;20104;-78
2023/05/09 10:30:09;;;;;;;7.07;4.03;;;18.60;95.00;;;;;;5059258;28;20052;-76
2023/05/09 10:32:41;;;;;;;7.65;4.25;;;18.60;95.00;;;;;;5059395;28;20504;-77
2023/05/09 10:35:10;;;;;;;7.70;5.00;;;18.60;94.80;;;;;;5057913;28;20498;-77
2023/05/09 10:37:36;;;;;;;8.43;4.35;;;18.60;94.80;;;;;;5058976;28;20023;-77
2023/05/09 10:40:03;;;;;;;8.30;4.97;;;18.50;94.90;;;;;;5057763;28;20017;-78
2023/05/09 10:42:30;;;;;;;7.25;4.78;;;18.40;94.90;;;;;;5057898;28;20025;-77
2023/05/09 10:44:56;;;;;;;5.75;4.30;;;18.40;95.10;;;;;;5058543;28;20112;-78
2023/05/09 10:47:26;;;;;;;7.80;4.43;;;18.50;95.30;;;;;;5055642;28;20037;-79
2023/05/09 10:49:53;;;;;;;7.57;5.10;;;18.40;95.30;;;;;;5037942;28;20029;-78
2023/05/09 10:52:21;;;;;;;8.10;4.57;;;18.40;95.40;;;;;;5055825;28;20025;-78
2023/05/09 10:55:01;;;;;;;7.50;5.40;;;18.40;95.40;;;;;;5055675;28;20053;-78
2023/05/09 10:57:30;;;;;;;8.05;5.07;;;18.30;95.50;;;;;;5055651;28;20029;-79
2023/05/09 10:59:57;;;;;;;8.25;5.40;;;18.30;95.80;;;;;;5037830;28;20095;-78
2023/05/09 11:02:28;;;;;;;9.07;5.95;;;18.20;96.10;;;;;;5055589;28;20037;-78
2023/05/09 11:05:16;;;;;;;9.25;6.65;;;18.10;96.50;;;;;;5055484;28;20047;-78
2023/05/09 11:07:42;;;;;;;11.93;6.95;;;18.10;96.70;;;;;;5055596;28;20025;-80
2023/05/09 11:10:13;;;;;;;9.00;5.47;;;18.10;97.20;;;;;;5055366;28;20096;-78
2023/05/09 11:12:54;;;;;;;7.68;5.28;;;18.10;97.30;;;;;;5054110;28;20440;-78
2023/05/09 11:15:21;;;;;;;7.60;5.45;;;18.00;97.40;;;;;;5054167;28;20029;-77
2023/05/09 11:17:51;;;;;;;8.15;5.47;;;18.00;97.50;;;;;;5054073;28;20083;-80
2023/05/09 11:20:17;;;;;;;9.02;5.88;;;17.90;97.60;;;;;;5055260;28;20382;-78
2023/05/09 11:22:45;;;;;;;6.30;4.20;;;17.80;97.80;;;;;;5054097;28;20029;-78
2023/05/09 11:25:12;;;;;;;7.72;4.97;;;17.80;98.10;;;;;;5053771;28;20063;-77
2023/05/09 11:27:45;;;;;;;6.55;4.80;;;17.70;98.30;;;;;;5054083;28;20435;-76
2023/05/09 11:30:13;;;;;;;7.70;4.77;;;17.60;98.50;;;;;;5037283;28;20017;-76
2023/05/09 11:32:43;;;;;;;6.55;4.00;;;17.50;98.70;;;;;;5055079;28;20271;-77
2023/05/09 11:35:13;;;;;;;6.65;3.92;;;17.40;98.90;;;;;;5055067;28;20082;-76
2023/05/09 11:37:47;;;;;;;8.35;4.93;;;17.40;99.30;;;;;;5055098;28;20021;-77
2023/05/09 11:40:14;;;;;;;8.10;4.40;;;17.20;99.60;;;;;;5053737;28;20028;-76
2023/05/09 11:42:48;;;;;;;6.13;3.92;;;17.20;99.90;;;;;;5036893;28;20052;-77
2023/05/09 11:45:15;;;;;;;6.35;4.15;;;17.10;99.90;;;;;;5054527;28;20029;-76
2023/05/09 11:47:41;;;;;;;8.02;3.65;;;17.00;99.90;;;;;;5053670;28;20036;-76
2023/05/09 11:50:12;;;;;;;6.22;3.80;;;17.00;99.90;;;;;;5054729;28;20033;-76
2023/05/09 11:52:38;;;;;;;5.10;3.45;;;17.00;99.90;;;;;;5054683;28;20033;-77
2023/05/09 11:55:12;;;;;;;6.30;3.92;;;16.90;99.90;;;;;;5053381;28;20055;-76
2023/05/09 11:57:40;;;;;;;4.55;2.75;;;17.00;99.90;;;;;;5053991;28;20543;-76
2023/05/09 12:00:08;;;;;;;9.85;3.65;;;17.00;99.90;;;;;;5053371;28;20020;-77
2023/05/09 12:02:35;;;;;;;7.20;3.80;;;17.10;99.90;;;;;;5053195;28;20025;-77
2023/05/09 12:05:12;;;;;;;6.30;3.88;;;17.10;99.90;;;;;;5036807;28;20079;-77
2023/05/09 12:07:39;;;;;;;6.32;4.22;;;17.20;99.90;;;;;;5054482;28;20113;-76
2023/05/09 12:10:07;;;;;;;7.10;4.15;;;17.10;99.90;;;;;;5054349;28;20424;-76
2023/05/09 12:12:44;;;;;;;6.50;3.38;;;17.20;99.90;;;;;;5054291;28;20028;-76
2023/05/09 12:15:12;;;;;;;6.85;3.60;;;17.20;99.90;;;;;;5052809;28;20526;-75
2023/05/09 12:17:41;;;;;;;4.97;3.10;;;17.20;99.90;;;;;;5054243;28;20036;-76
2023/05/09 12:20:07;;;;;;;5.05;2.85;;;17.30;99.90;;;;;;5036736;28;20021;-76
2023/05/09 12:22:34;;;;;;;4.78;2.53;;;17.30;99.90;;;;;;5052896;28;20017;-76
2023/05/09 12:25:04;;;;;;;4.72;2.55;;;17.40;99.90;;;;;;5054377;28;20025;-75
2023/05/09 12:27:31;;;;;;;4.55;2.53;;;17.40;99.90;;;;;;5053937;28;20087;-75
2023/05/09 12:30:08;;;;;;;3.00;1.90;;;17.30;99.90;;;;;;5052698;28;20017;-76
2023/05/09 12:32:36;;;;;;;4.78;2.55;;;17.30;99.90;;;;;;5053929;28;20021;-76